Terminal Aerodrome Forecast
Issued by NWS Grand Forks, ND

Home | Current Version | Previous Version | Text Only | Print | Product List | Glossary Off
Versions: 1 2 3 4 5 6 7 8 9 10 11 12 13 14 15 16 17 18 19 20 21

000
FTUS43 KFGF 182100 AAB
TAFGFK
TAF AMD
KGFK 182123Z 1821/1918 32007KT P6SM VCTS BKN040CB
      TEMPO 1821/1824 BKN025CB
     FM190200 33005KT P6SM SCT250
     FM191100 VRB03KT 2SM BR SCT250
     FM191400 35005KT P6SM SCT250=

USA.gov is the U.S. government's official web portal to all federal, state and local government web resources and services.